Alvadore, OR (97409)

6:16 AM PDT on August 31, 2015 (GMT -0700)
Alvadore | | Change Station
CLOSE
Current Station
Personal Weather Station
Location: Eugene, OR
Elevation: 397 ft
Nearby Weather Stations

Elev 397 ft 44.11 °N, 123.27 °W | Updated 7 seconds ago

Scattered Clouds
Scattered Clouds
51.3 °F
Feels Like 51.3 °F
N
0.0
Wind Variable Wind from South
Gusts 0.0 mph

Today
High -- | Low -- °F
--% Chance of Precip.
Yesterday
High -- | Low -- °F
Precip. -- in
6:34 AM 7:51 PM
Waning Gibbous, 95% visible
Pressure 30.08 in
Visibility 10.0 miles
Clouds Scattered Clouds 25000 ft
Dew Point 51 °F
Humidity 99%
Rainfall 0.00 in
Snow Depth Not available.
UV 0 out of 12
Pollen 3.10 out of 12
Air Quality Not available.
Flu Activity Not available.
METAR KEUG 311254Z 24003KT 10SM SCT250 10/09 A3008 RMK AO2 SLP186 T01000089
Pressure 30.08 in
Visibility 10.0 miles
Clouds Scattered Clouds 25000 ft
Dew Point 51 °F
Humidity 99%
Rainfall 0.00 in
Snow Depth Not available.
UV 0 out of 12
Pollen 3.10 out of 12
Air Quality Not available.
Flu Activity Not available.
METAR KEUG 311254Z 24003KT 10SM SCT250 10/09 A3008 RMK AO2 SLP186 T01000089

10-Day Weather Forecast

×

Almanac

Astronomy

Aug. 31, 2015 Rise Set
Actual Time
Civil Twilight
Nautical Twilight
Astronomical Twilight
Moon
Length of Visible Light
Length of Day
Tomorrow will be .
, % of the Moon is Illuminated

Today's Extremes

State Highs State Lows

Community

WunderPhotos

Upload Photos

1,851,226 photos uploaded!

WunderBlogs® & News

Nearby

Air Quality

  Air Quality AQ Index Pollutant
Not available.

Snow Depth

Station Depth Elevation

Earthquake Activity

City Distance Mag. Time & Date
Minimum magnitude displayed is 2.5.

Coastal Water Temperatures

Place Temperature

Stations

Nearby Weather Stations

Station Location Temp. Windchill Dew Point Humidity Wind Precip. Elev Updated Type